sensor_id;sensor_type;location;lat;lon;timestamp;temperature;humidity
12421;DHT22;6275;43.688;1.408;2023-01-08T00:01:16;10.70;99.90
12421;DHT22;6275;43.688;1.408;2023-01-08T00:03:44;10.60;99.90
12421;DHT22;6275;43.688;1.408;2023-01-08T00:06:14;10.30;99.90
12421;DHT22;6275;43.688;1.408;2023-01-08T00:08:41;10.10;99.90
12421;DHT22;6275;43.688;1.408;2023-01-08T00:11:09;9.90;99.90
12421;DHT22;6275;43.688;1.408;2023-01-08T00:13:36;9.90;99.90
12421;DHT22;6275;43.688;1.408;2023-01-08T00:16:08;9.80;99.90
12421;DHT22;6275;43.688;1.408;2023-01-08T00:18:36;9.90;99.90
12421;DHT22;6275;43.688;1.408;2023-01-08T00:21:04;9.90;99.90
12421;DHT22;6275;43.688;1.408;2023-01-08T00:23:31;9.90;99.90
12421;DHT22;6275;43.688;1.408;2023-01-08T00:26:04;9.80;99.90
12421;DHT22;6275;43.688;1.408;2023-01-08T00:28:31;9.80;99.90
12421;DHT22;6275;43.688;1.408;2023-01-08T00:30:58;9.80;99.90
12421;DHT22;6275;43.688;1.408;2023-01-08T00:33:29;9.80;99.90
12421;DHT22;6275;43.688;1.408;2023-01-08T00:35:57;9.80;99.90
12421;DHT22;6275;43.688;1.408;2023-01-08T00:38:25;9.80;99.90
12421;DHT22;6275;43.688;1.408;2023-01-08T00:40:52;9.80;99.90
12421;DHT22;6275;43.688;1.408;2023-01-08T00:43:20;9.90;99.90
12421;DHT22;6275;43.688;1.408;2023-01-08T00:45:47;9.80;99.90
12421;DHT22;6275;43.688;1.408;2023-01-08T00:48:17;9.90;99.90
12421;DHT22;6275;43.688;1.408;2023-01-08T00:50:44;9.80;99.90
12421;DHT22;6275;43.688;1.408;2023-01-08T00:53:11;9.80;99.90
12421;DHT22;6275;43.688;1.408;2023-01-08T00:55:38;9.80;99.90
12421;DHT22;6275;43.688;1.408;2023-01-08T00:58:05;9.80;99.90
12421;DHT22;6275;43.688;1.408;2023-01-08T01:00:32;9.80;99.90
12421;DHT22;6275;43.688;1.408;2023-01-08T01:02:59;9.70;99.90
12421;DHT22;6275;43.688;1.408;2023-01-08T01:05:25;9.70;99.90
12421;DHT22;6275;43.688;1.408;2023-01-08T01:07:52;9.70;99.90
12421;DHT22;6275;43.688;1.408;2023-01-08T01:10:19;9.80;99.90
12421;DHT22;6275;43.688;1.408;2023-01-08T01:12:46;9.70;99.90
12421;DHT22;6275;43.688;1.408;2023-01-08T01:15:16;9.60;99.90
12421;DHT22;6275;43.688;1.408;2023-01-08T01:17:44;9.70;99.90
12421;DHT22;6275;43.688;1.408;2023-01-08T01:20:15;9.70;99.90
12421;DHT22;6275;43.688;1.408;2023-01-08T01:22:42;9.50;99.90
12421;DHT22;6275;43.688;1.408;2023-01-08T01:25:09;9.40;99.90
12421;DHT22;6275;43.688;1.408;2023-01-08T01:27:37;9.30;99.90
12421;DHT22;6275;43.688;1.408;2023-01-08T01:30:04;9.30;99.90
12421;DHT22;6275;43.688;1.408;2023-01-08T01:32:31;9.30;99.90
12421;DHT22;6275;43.688;1.408;2023-01-08T01:34:58;9.30;99.90
12421;DHT22;6275;43.688;1.408;2023-01-08T01:37:25;9.20;99.90
12421;DHT22;6275;43.688;1.408;2023-01-08T01:39:53;9.20;99.90
12421;DHT22;6275;43.688;1.408;2023-01-08T01:42:22;9.20;99.90
12421;DHT22;6275;43.688;1.408;2023-01-08T01:45:24;9.20;99.90
12421;DHT22;6275;43.688;1.408;2023-01-08T01:48:01;9.10;99.90
12421;DHT22;6275;43.688;1.408;2023-01-08T01:50:44;9.10;99.90
12421;DHT22;6275;43.688;1.408;2023-01-08T01:53:18;9.10;99.90
12421;DHT22;6275;43.688;1.408;2023-01-08T01:55:48;9.10;99.90
12421;DHT22;6275;43.688;1.408;2023-01-08T01:58:16;9.10;99.90
12421;DHT22;6275;43.688;1.408;2023-01-08T02:00:44;9.10;99.90
12421;DHT22;6275;43.688;1.408;2023-01-08T02:03:13;9.10;99.90
12421;DHT22;6275;43.688;1.408;2023-01-08T02:05:53;9.10;99.90
12421;DHT22;6275;43.688;1.408;2023-01-08T02:11:54;9.00;99.90
12421;DHT22;6275;43.688;1.408;2023-01-08T02:20:36;9.10;99.90
12421;DHT22;6275;43.688;1.408;2023-01-08T02:28:50;9.00;99.90
12421;DHT22;6275;43.688;1.408;2023-01-08T02:31:19;9.00;99.90
12421;DHT22;6275;43.688;1.408;2023-01-08T02:33:47;9.00;99.90
12421;DHT22;6275;43.688;1.408;2023-01-08T02:36:34;9.00;99.90
12421;DHT22;6275;43.688;1.408;2023-01-08T02:42:08;9.00;99.90
12421;DHT22;6275;43.688;1.408;2023-01-08T02:47:44;9.00;99.90
12421;DHT22;6275;43.688;1.408;2023-01-08T02:50:28;9.00;99.90
12421;DHT22;6275;43.688;1.408;2023-01-08T02:56:00;9.00;99.90
12421;DHT22;6275;43.688;1.408;2023-01-08T02:58:30;9.00;99.90
12421;DHT22;6275;43.688;1.408;2023-01-08T03:01:02;9.00;99.90
12421;DHT22;6275;43.688;1.408;2023-01-08T03:03:30;9.00;99.90
12421;DHT22;6275;43.688;1.408;2023-01-08T03:06:09;9.00;99.90
12421;DHT22;6275;43.688;1.408;2023-01-08T03:08:42;9.00;99.90
12421;DHT22;6275;43.688;1.408;2023-01-08T03:11:11;9.00;99.90
12421;DHT22;6275;43.688;1.408;2023-01-08T03:16:40;9.00;99.90
12421;DHT22;6275;43.688;1.408;2023-01-08T03:19:13;9.00;99.90
12421;DHT22;6275;43.688;1.408;2023-01-08T03:21:43;9.00;99.90
12421;DHT22;6275;43.688;1.408;2023-01-08T03:24:16;9.00;99.90
12421;DHT22;6275;43.688;1.408;2023-01-08T03:26:45;8.90;99.90
12421;DHT22;6275;43.688;1.408;2023-01-08T03:29:16;8.90;99.90
12421;DHT22;6275;43.688;1.408;2023-01-08T03:31:45;8.90;99.90
12421;DHT22;6275;43.688;1.408;2023-01-08T03:34:14;8.90;99.90
12421;DHT22;6275;43.688;1.408;2023-01-08T03:36:45;8.90;99.90
12421;DHT22;6275;43.688;1.408;2023-01-08T03:39:19;8.90;99.90
12421;DHT22;6275;43.688;1.408;2023-01-08T03:41:48;8.90;99.90
12421;DHT22;6275;43.688;1.408;2023-01-08T03:44:15;8.90;99.90
12421;DHT22;6275;43.688;1.408;2023-01-08T03:46:46;8.90;99.90
12421;DHT22;6275;43.688;1.408;2023-01-08T03:49:14;8.90;99.90
12421;DHT22;6275;43.688;1.408;2023-01-08T03:51:44;8.90;99.90
12421;DHT22;6275;43.688;1.408;2023-01-08T03:54:14;8.90;99.90
12421;DHT22;6275;43.688;1.408;2023-01-08T03:56:41;8.90;99.90
12421;DHT22;6275;43.688;1.408;2023-01-08T03:59:10;8.90;99.90
12421;DHT22;6275;43.688;1.408;2023-01-08T04:01:37;8.90;99.90
12421;DHT22;6275;43.688;1.408;2023-01-08T04:04:05;8.90;99.90
12421;DHT22;6275;43.688;1.408;2023-01-08T04:06:32;8.90;99.90
12421;DHT22;6275;43.688;1.408;2023-01-08T04:08:59;8.90;99.90
12421;DHT22;6275;43.688;1.408;2023-01-08T04:11:26;8.90;99.90
12421;DHT22;6275;43.688;1.408;2023-01-08T04:13:53;8.90;99.90
12421;DHT22;6275;43.688;1.408;2023-01-08T04:16:20;8.90;99.90
12421;DHT22;6275;43.688;1.408;2023-01-08T04:18:48;8.90;99.90
12421;DHT22;6275;43.688;1.408;2023-01-08T04:21:15;8.90;99.90
12421;DHT22;6275;43.688;1.408;2023-01-08T04:23:42;8.90;99.90
12421;DHT22;6275;43.688;1.408;2023-01-08T04:26:09;8.90;99.90
12421;DHT22;6275;43.688;1.408;2023-01-08T04:28:36;8.90;99.90
12421;DHT22;6275;43.688;1.408;2023-01-08T04:31:06;8.90;99.90
12421;DHT22;6275;43.688;1.408;2023-01-08T04:33:34;8.90;99.90
12421;DHT22;6275;43.688;1.408;2023-01-08T04:36:02;8.90;99.90
12421;DHT22;6275;43.688;1.408;2023-01-08T04:38:29;8.90;99.90
12421;DHT22;6275;43.688;1.408;2023-01-08T04:40:57;8.90;99.90
12421;DHT22;6275;43.688;1.408;2023-01-08T04:43:24;8.90;99.90
12421;DHT22;6275;43.688;1.408;2023-01-08T04:45:51;8.90;99.90
12421;DHT22;6275;43.688;1.408;2023-01-08T04:48:18;8.90;99.90
12421;DHT22;6275;43.688;1.408;2023-01-08T04:50:45;9.00;99.90
12421;DHT22;6275;43.688;1.408;2023-01-08T04:53:12;9.00;99.90
12421;DHT22;6275;43.688;1.408;2023-01-08T04:55:39;9.00;99.90
12421;DHT22;6275;43.688;1.408;2023-01-08T04:58:06;9.00;99.90
12421;DHT22;6275;43.688;1.408;2023-01-08T05:00:34;9.00;99.90
12421;DHT22;6275;43.688;1.408;2023-01-08T05:03:01;9.00;99.90
12421;DHT22;6275;43.688;1.408;2023-01-08T05:05:28;8.90;99.90
12421;DHT22;6275;43.688;1.408;2023-01-08T05:07:55;8.90;99.90
12421;DHT22;6275;43.688;1.408;2023-01-08T05:10:21;8.80;99.90
12421;DHT22;6275;43.688;1.408;2023-01-08T05:12:48;8.90;99.90
12421;DHT22;6275;43.688;1.408;2023-01-08T05:15:15;8.80;99.90
12421;DHT22;6275;43.688;1.408;2023-01-08T05:17:42;8.80;99.90
12421;DHT22;6275;43.688;1.408;2023-01-08T05:20:10;8.70;99.90
12421;DHT22;6275;43.688;1.408;2023-01-08T05:22:37;8.70;99.90
12421;DHT22;6275;43.688;1.408;2023-01-08T05:25:04;8.70;99.90
12421;DHT22;6275;43.688;1.408;2023-01-08T05:27:31;8.70;99.90
12421;DHT22;6275;43.688;1.408;2023-01-08T05:29:58;8.70;99.90
12421;DHT22;6275;43.688;1.408;2023-01-08T05:32:25;8.70;99.90
12421;DHT22;6275;43.688;1.408;2023-01-08T05:34:52;8.60;99.90
12421;DHT22;6275;43.688;1.408;2023-01-08T05:37:18;8.60;99.90
12421;DHT22;6275;43.688;1.408;2023-01-08T05:39:45;8.50;99.90
12421;DHT22;6275;43.688;1.408;2023-01-08T05:42:12;8.50;99.90
12421;DHT22;6275;43.688;1.408;2023-01-08T05:44:39;8.50;99.90
12421;DHT22;6275;43.688;1.408;2023-01-08T05:47:06;8.40;99.90
12421;DHT22;6275;43.688;1.408;2023-01-08T05:49:33;8.50;99.90
12421;DHT22;6275;43.688;1.408;2023-01-08T05:52:00;8.40;99.90
12421;DHT22;6275;43.688;1.408;2023-01-08T05:54:27;8.40;99.90
12421;DHT22;6275;43.688;1.408;2023-01-08T05:56:53;8.40;99.90
12421;DHT22;6275;43.688;1.408;2023-01-08T05:59:20;8.40;99.90
12421;DHT22;6275;43.688;1.408;2023-01-08T06:01:48;8.40;99.90
12421;DHT22;6275;43.688;1.408;2023-01-08T06:04:15;8.30;99.90
12421;DHT22;6275;43.688;1.408;2023-01-08T06:06:42;8.30;99.90
12421;DHT22;6275;43.688;1.408;2023-01-08T06:09:10;8.30;99.90
12421;DHT22;6275;43.688;1.408;2023-01-08T06:11:37;8.30;99.90
12421;DHT22;6275;43.688;1.408;2023-01-08T06:14:03;8.30;99.90
12421;DHT22;6275;43.688;1.408;2023-01-08T06:16:30;8.20;99.90
12421;DHT22;6275;43.688;1.408;2023-01-08T06:18:57;8.20;99.90
12421;DHT22;6275;43.688;1.408;2023-01-08T06:21:24;8.20;99.90
12421;DHT22;6275;43.688;1.408;2023-01-08T06:23:51;8.20;99.90
12421;DHT22;6275;43.688;1.408;2023-01-08T06:26:18;8.20;99.90
12421;DHT22;6275;43.688;1.408;2023-01-08T06:28:45;8.20;99.90
12421;DHT22;6275;43.688;1.408;2023-01-08T06:31:12;8.20;99.90
12421;DHT22;6275;43.688;1.408;2023-01-08T06:33:39;8.20;99.90
12421;DHT22;6275;43.688;1.408;2023-01-08T06:36:06;8.20;99.90
12421;DHT22;6275;43.688;1.408;2023-01-08T06:38:34;8.20;99.90
12421;DHT22;6275;43.688;1.408;2023-01-08T06:41:06;8.20;99.90
12421;DHT22;6275;43.688;1.408;2023-01-08T06:43:35;8.20;99.90
12421;DHT22;6275;43.688;1.408;2023-01-08T06:46:03;8.20;99.90
12421;DHT22;6275;43.688;1.408;2023-01-08T06:48:30;8.20;99.90
12421;DHT22;6275;43.688;1.408;2023-01-08T06:51:01;8.30;99.90
12421;DHT22;6275;43.688;1.408;2023-01-08T06:53:28;8.20;99.90
12421;DHT22;6275;43.688;1.408;2023-01-08T06:55:55;8.30;99.90
12421;DHT22;6275;43.688;1.408;2023-01-08T06:58:27;8.30;99.90
12421;DHT22;6275;43.688;1.408;2023-01-08T07:00:54;8.30;99.90
12421;DHT22;6275;43.688;1.408;2023-01-08T07:03:21;8.20;99.90
12421;DHT22;6275;43.688;1.408;2023-01-08T07:05:48;8.20;99.90
12421;DHT22;6275;43.688;1.408;2023-01-08T07:08:19;8.20;99.90
12421;DHT22;6275;43.688;1.408;2023-01-08T07:10:45;8.20;99.90
12421;DHT22;6275;43.688;1.408;2023-01-08T07:13:13;8.20;99.90
12421;DHT22;6275;43.688;1.408;2023-01-08T07:15:40;8.20;99.90
12421;DHT22;6275;43.688;1.408;2023-01-08T07:18:10;8.20;99.90
12421;DHT22;6275;43.688;1.408;2023-01-08T07:20:38;8.20;99.90
12421;DHT22;6275;43.688;1.408;2023-01-08T07:23:08;8.20;99.90
12421;DHT22;6275;43.688;1.408;2023-01-08T07:25:35;8.20;99.90
12421;DHT22;6275;43.688;1.408;2023-01-08T07:28:02;8.20;99.90
12421;DHT22;6275;43.688;1.408;2023-01-08T07:30:29;8.20;99.90
12421;DHT22;6275;43.688;1.408;2023-01-08T07:32:58;8.20;99.90
12421;DHT22;6275;43.688;1.408;2023-01-08T07:35:25;8.20;99.90
12421;DHT22;6275;43.688;1.408;2023-01-08T07:37:52;8.20;99.90
12421;DHT22;6275;43.688;1.408;2023-01-08T07:40:20;8.20;99.90
12421;DHT22;6275;43.688;1.408;2023-01-08T07:42:47;8.20;99.90
12421;DHT22;6275;43.688;1.408;2023-01-08T07:45:14;8.20;99.90
12421;DHT22;6275;43.688;1.408;2023-01-08T07:47:40;8.20;99.90
12421;DHT22;6275;43.688;1.408;2023-01-08T07:50:08;8.20;99.90
12421;DHT22;6275;43.688;1.408;2023-01-08T07:52:35;8.20;99.90
12421;DHT22;6275;43.688;1.408;2023-01-08T07:55:02;8.20;99.90
12421;DHT22;6275;43.688;1.408;2023-01-08T07:57:29;8.20;99.90
12421;DHT22;6275;43.688;1.408;2023-01-08T07:59:56;8.20;99.90
12421;DHT22;6275;43.688;1.408;2023-01-08T08:02:22;8.20;99.90
12421;DHT22;6275;43.688;1.408;2023-01-08T08:04:50;8.30;99.90
12421;DHT22;6275;43.688;1.408;2023-01-08T08:07:17;8.30;99.90
12421;DHT22;6275;43.688;1.408;2023-01-08T08:09:44;8.30;99.90
12421;DHT22;6275;43.688;1.408;2023-01-08T08:12:10;8.30;99.90
12421;DHT22;6275;43.688;1.408;2023-01-08T08:14:37;8.30;99.90
12421;DHT22;6275;43.688;1.408;2023-01-08T08:17:04;8.30;99.90
12421;DHT22;6275;43.688;1.408;2023-01-08T08:19:31;8.30;99.90
12421;DHT22;6275;43.688;1.408;2023-01-08T08:21:58;8.30;99.90
12421;DHT22;6275;43.688;1.408;2023-01-08T08:24:25;8.30;99.90
12421;DHT22;6275;43.688;1.408;2023-01-08T08:26:52;8.30;99.90
12421;DHT22;6275;43.688;1.408;2023-01-08T08:29:20;8.40;99.90
12421;DHT22;6275;43.688;1.408;2023-01-08T08:31:47;8.30;99.90
12421;DHT22;6275;43.688;1.408;2023-01-08T08:34:14;8.40;99.90
12421;DHT22;6275;43.688;1.408;2023-01-08T08:36:41;8.40;99.90
12421;DHT22;6275;43.688;1.408;2023-01-08T08:39:08;8.40;99.90
12421;DHT22;6275;43.688;1.408;2023-01-08T08:41:35;8.40;99.90
12421;DHT22;6275;43.688;1.408;2023-01-08T08:44:02;8.50;99.90
12421;DHT22;6275;43.688;1.408;2023-01-08T08:46:29;8.50;99.90
12421;DHT22;6275;43.688;1.408;2023-01-08T08:48:56;8.60;99.90
12421;DHT22;6275;43.688;1.408;2023-01-08T08:51:23;8.60;99.90
12421;DHT22;6275;43.688;1.408;2023-01-08T08:53:50;8.70;99.90
12421;DHT22;6275;43.688;1.408;2023-01-08T08:56:18;8.70;99.90
12421;DHT22;6275;43.688;1.408;2023-01-08T08:58:45;8.80;99.90
12421;DHT22;6275;43.688;1.408;2023-01-08T09:01:12;8.80;99.90
12421;DHT22;6275;43.688;1.408;2023-01-08T09:03:39;8.80;99.90
12421;DHT22;6275;43.688;1.408;2023-01-08T09:06:12;8.80;99.90
12421;DHT22;6275;43.688;1.408;2023-01-08T09:08:40;8.80;99.90
12421;DHT22;6275;43.688;1.408;2023-01-08T09:11:07;8.90;99.90
12421;DHT22;6275;43.688;1.408;2023-01-08T09:13:36;8.90;99.90
12421;DHT22;6275;43.688;1.408;2023-01-08T09:16:03;8.90;99.90
12421;DHT22;6275;43.688;1.408;2023-01-08T09:18:31;8.90;99.90
12421;DHT22;6275;43.688;1.408;2023-01-08T09:20:58;8.90;99.90
12421;DHT22;6275;43.688;1.408;2023-01-08T09:23:29;9.00;99.90
12421;DHT22;6275;43.688;1.408;2023-01-08T09:26:03;9.00;99.90
12421;DHT22;6275;43.688;1.408;2023-01-08T09:28:30;9.10;99.90
12421;DHT22;6275;43.688;1.408;2023-01-08T09:31:02;9.10;99.90
12421;DHT22;6275;43.688;1.408;2023-01-08T09:33:29;9.20;99.90
12421;DHT22;6275;43.688;1.408;2023-01-08T09:35:57;9.30;99.90
12421;DHT22;6275;43.688;1.408;2023-01-08T09:38:24;9.40;99.90
12421;DHT22;6275;43.688;1.408;2023-01-08T09:43:23;9.40;99.90
12421;DHT22;6275;43.688;1.408;2023-01-08T09:45:59;9.50;99.90
12421;DHT22;6275;43.688;1.408;2023-01-08T09:48:30;9.50;99.90
12421;DHT22;6275;43.688;1.408;2023-01-08T09:50:58;9.60;99.90
12421;DHT22;6275;43.688;1.408;2023-01-08T09:53:25;9.70;99.90
12421;DHT22;6275;43.688;1.408;2023-01-08T09:55:57;9.80;99.90
12421;DHT22;6275;43.688;1.408;2023-01-08T09:58:49;9.80;99.90
12421;DHT22;6275;43.688;1.408;2023-01-08T10:01:20;10.10;99.90
12421;DHT22;6275;43.688;1.408;2023-01-08T10:06:17;10.60;99.90
12421;DHT22;6275;43.688;1.408;2023-01-08T10:08:45;10.60;99.90
12421;DHT22;6275;43.688;1.408;2023-01-08T10:11:13;10.60;99.90
12421;DHT22;6275;43.688;1.408;2023-01-08T10:13:45;10.70;99.90
12421;DHT22;6275;43.688;1.408;2023-01-08T10:16:22;10.70;99.90
12421;DHT22;6275;43.688;1.408;2023-01-08T10:21:18;11.60;99.90
12421;DHT22;6275;43.688;1.408;2023-01-08T10:23:52;11.80;99.90
12421;DHT22;6275;43.688;1.408;2023-01-08T10:26:31;11.60;99.90
12421;DHT22;6275;43.688;1.408;2023-01-08T10:29:08;11.60;99.90
12421;DHT22;6275;43.688;1.408;2023-01-08T15:35:43;11.50;99.90
12421;DHT22;6275;43.688;1.408;2023-01-08T15:38:12;11.40;99.90
12421;DHT22;6275;43.688;1.408;2023-01-08T15:40:39;11.40;99.90
12421;DHT22;6275;43.688;1.408;2023-01-08T15:43:11;11.30;99.90
12421;DHT22;6275;43.688;1.408;2023-01-08T15:45:41;11.30;99.90
12421;DHT22;6275;43.688;1.408;2023-01-08T15:48:09;11.20;99.90
12421;DHT22;6275;43.688;1.408;2023-01-08T15:50:38;11.20;99.90
12421;DHT22;6275;43.688;1.408;2023-01-08T15:53:14;11.10;99.90
12421;DHT22;6275;43.688;1.408;2023-01-08T15:55:42;11.20;99.90
12421;DHT22;6275;43.688;1.408;2023-01-08T15:58:10;11.10;99.90
12421;DHT22;6275;43.688;1.408;2023-01-08T16:00:40;11.00;99.90
12421;DHT22;6275;43.688;1.408;2023-01-08T16:03:07;11.00;99.90
12421;DHT22;6275;43.688;1.408;2023-01-08T16:05:35;10.90;99.90
12421;DHT22;6275;43.688;1.408;2023-01-08T16:08:03;10.90;99.90
12421;DHT22;6275;43.688;1.408;2023-01-08T16:10:31;10.80;99.90
12421;DHT22;6275;43.688;1.408;2023-01-08T16:13:00;10.90;99.90
12421;DHT22;6275;43.688;1.408;2023-01-08T16:15:27;10.80;99.90
12421;DHT22;6275;43.688;1.408;2023-01-08T16:17:57;10.80;99.90
12421;DHT22;6275;43.688;1.408;2023-01-08T16:20:25;10.80;99.90
12421;DHT22;6275;43.688;1.408;2023-01-08T16:22:52;10.80;99.90
12421;DHT22;6275;43.688;1.408;2023-01-08T16:25:20;10.70;99.90
12421;DHT22;6275;43.688;1.408;2023-01-08T16:27:47;10.80;99.90
12421;DHT22;6275;43.688;1.408;2023-01-08T16:30:14;10.80;99.90
12421;DHT22;6275;43.688;1.408;2023-01-08T16:32:42;10.70;99.90
12421;DHT22;6275;43.688;1.408;2023-01-08T16:35:09;10.70;99.90
12421;DHT22;6275;43.688;1.408;2023-01-08T16:37:37;10.70;99.90
12421;DHT22;6275;43.688;1.408;2023-01-08T16:40:05;10.70;99.90
12421;DHT22;6275;43.688;1.408;2023-01-08T16:42:32;10.70;99.90
12421;DHT22;6275;43.688;1.408;2023-01-08T16:44:59;10.70;99.90
12421;DHT22;6275;43.688;1.408;2023-01-08T16:47:26;10.70;99.90
12421;DHT22;6275;43.688;1.408;2023-01-08T16:49:53;10.70;99.90
12421;DHT22;6275;43.688;1.408;2023-01-08T16:52:20;10.60;99.90
12421;DHT22;6275;43.688;1.408;2023-01-08T16:54:47;10.60;99.90
12421;DHT22;6275;43.688;1.408;2023-01-08T16:57:14;10.60;99.90
12421;DHT22;6275;43.688;1.408;2023-01-08T16:59:41;10.60;99.90
12421;DHT22;6275;43.688;1.408;2023-01-08T17:02:09;10.60;99.90
12421;DHT22;6275;43.688;1.408;2023-01-08T17:04:36;10.60;99.90
12421;DHT22;6275;43.688;1.408;2023-01-08T17:07:04;10.60;99.90
12421;DHT22;6275;43.688;1.408;2023-01-08T17:09:31;10.60;99.90
12421;DHT22;6275;43.688;1.408;2023-01-08T17:11:58;10.60;99.90
12421;DHT22;6275;43.688;1.408;2023-01-08T17:14:25;10.60;99.90
12421;DHT22;6275;43.688;1.408;2023-01-08T17:16:52;10.60;99.90
12421;DHT22;6275;43.688;1.408;2023-01-08T17:19:19;10.60;99.90
12421;DHT22;6275;43.688;1.408;2023-01-08T17:21:49;10.60;99.90
12421;DHT22;6275;43.688;1.408;2023-01-08T17:24:16;10.60;99.90
12421;DHT22;6275;43.688;1.408;2023-01-08T17:26:43;10.60;99.90
12421;DHT22;6275;43.688;1.408;2023-01-08T17:29:10;10.60;99.90
12421;DHT22;6275;43.688;1.408;2023-01-08T17:31:37;10.60;99.90
12421;DHT22;6275;43.688;1.408;2023-01-08T17:34:11;10.60;99.90
12421;DHT22;6275;43.688;1.408;2023-01-08T17:36:39;10.70;99.90
12421;DHT22;6275;43.688;1.408;2023-01-08T17:39:06;10.60;99.90
12421;DHT22;6275;43.688;1.408;2023-01-08T17:41:34;10.70;99.90
12421;DHT22;6275;43.688;1.408;2023-01-08T17:44:20;10.70;99.90
12421;DHT22;6275;43.688;1.408;2023-01-08T17:46:47;10.70;99.90
12421;DHT22;6275;43.688;1.408;2023-01-08T17:49:15;10.70;99.90
12421;DHT22;6275;43.688;1.408;2023-01-08T17:51:43;10.70;99.90
12421;DHT22;6275;43.688;1.408;2023-01-08T17:54:12;10.70;99.90
12421;DHT22;6275;43.688;1.408;2023-01-08T17:56:41;10.70;99.90
12421;DHT22;6275;43.688;1.408;2023-01-08T17:59:12;10.70;99.90
12421;DHT22;6275;43.688;1.408;2023-01-08T18:01:39;10.80;99.90
12421;DHT22;6275;43.688;1.408;2023-01-08T18:04:06;10.80;99.90
12421;DHT22;6275;43.688;1.408;2023-01-08T18:06:33;10.80;99.90
12421;DHT22;6275;43.688;1.408;2023-01-08T18:09:00;10.80;99.90
12421;DHT22;6275;43.688;1.408;2023-01-08T18:11:27;10.70;99.90
12421;DHT22;6275;43.688;1.408;2023-01-08T18:13:59;10.80;99.90
12421;DHT22;6275;43.688;1.408;2023-01-08T18:16:28;10.80;99.90
12421;DHT22;6275;43.688;1.408;2023-01-08T18:18:56;10.80;99.90
12421;DHT22;6275;43.688;1.408;2023-01-08T18:21:24;10.80;99.90
12421;DHT22;6275;43.688;1.408;2023-01-08T18:23:51;10.70;99.90
12421;DHT22;6275;43.688;1.408;2023-01-08T18:26:19;10.80;99.90
12421;DHT22;6275;43.688;1.408;2023-01-08T18:28:47;10.80;99.90
12421;DHT22;6275;43.688;1.408;2023-01-08T18:31:14;10.80;99.90
12421;DHT22;6275;43.688;1.408;2023-01-08T18:33:41;10.80;99.90
12421;DHT22;6275;43.688;1.408;2023-01-08T18:36:11;10.80;99.90
12421;DHT22;6275;43.688;1.408;2023-01-08T18:38:40;10.80;99.90
12421;DHT22;6275;43.688;1.408;2023-01-08T18:41:08;10.80;99.90
12421;DHT22;6275;43.688;1.408;2023-01-08T18:43:35;10.80;99.90
12421;DHT22;6275;43.688;1.408;2023-01-08T18:46:05;10.80;99.90
12421;DHT22;6275;43.688;1.408;2023-01-08T18:48:34;10.90;99.90
12421;DHT22;6275;43.688;1.408;2023-01-08T20:10:12;10.60;99.90
12421;DHT22;6275;43.688;1.408;2023-01-08T20:12:39;10.60;99.90
12421;DHT22;6275;43.688;1.408;2023-01-08T20:15:06;10.60;99.90
12421;DHT22;6275;43.688;1.408;2023-01-08T20:17:33;10.60;99.90
12421;DHT22;6275;43.688;1.408;2023-01-08T20:20:00;10.60;99.90
12421;DHT22;6275;43.688;1.408;2023-01-08T20:22:27;10.70;99.90
12421;DHT22;6275;43.688;1.408;2023-01-08T20:24:56;10.70;99.90
12421;DHT22;6275;43.688;1.408;2023-01-08T20:27:24;10.60;99.90
12421;DHT22;6275;43.688;1.408;2023-01-08T20:29:51;10.70;99.90
12421;DHT22;6275;43.688;1.408;2023-01-08T20:32:18;10.60;99.90
12421;DHT22;6275;43.688;1.408;2023-01-08T20:34:48;10.60;99.90
12421;DHT22;6275;43.688;1.408;2023-01-08T20:37:15;10.60;99.90
12421;DHT22;6275;43.688;1.408;2023-01-08T20:39:42;10.50;99.90
12421;DHT22;6275;43.688;1.408;2023-01-08T20:42:09;10.50;99.90
12421;DHT22;6275;43.688;1.408;2023-01-08T20:44:42;10.40;99.90
12421;DHT22;6275;43.688;1.408;2023-01-08T20:47:09;10.40;99.90
12421;DHT22;6275;43.688;1.408;2023-01-08T20:49:36;10.30;99.90
12421;DHT22;6275;43.688;1.408;2023-01-08T20:52:03;10.10;99.90
12421;DHT22;6275;43.688;1.408;2023-01-08T20:56:58;10.10;99.90
12421;DHT22;6275;43.688;1.408;2023-01-08T20:59:26;10.00;99.90
12421;DHT22;6275;43.688;1.408;2023-01-08T21:01:54;9.90;99.90
12421;DHT22;6275;43.688;1.408;2023-01-08T21:04:21;9.80;99.90
12421;DHT22;6275;43.688;1.408;2023-01-08T21:06:48;9.80;99.90
12421;DHT22;6275;43.688;1.408;2023-01-08T21:09:15;9.70;99.90
12421;DHT22;6275;43.688;1.408;2023-01-08T21:11:43;9.70;99.90
12421;DHT22;6275;43.688;1.408;2023-01-08T21:14:10;9.60;99.90
12421;DHT22;6275;43.688;1.408;2023-01-08T21:16:38;9.60;99.90
12421;DHT22;6275;43.688;1.408;2023-01-08T21:19:06;9.60;99.90
12421;DHT22;6275;43.688;1.408;2023-01-08T21:21:37;9.60;99.90
12421;DHT22;6275;43.688;1.408;2023-01-08T21:24:07;9.60;99.90
12421;DHT22;6275;43.688;1.408;2023-01-08T21:26:35;9.60;99.90
12421;DHT22;6275;43.688;1.408;2023-01-08T21:29:06;9.60;99.90
12421;DHT22;6275;43.688;1.408;2023-01-08T21:31:35;9.70;99.90
12421;DHT22;6275;43.688;1.408;2023-01-08T21:34:03;9.70;99.90
12421;DHT22;6275;43.688;1.408;2023-01-08T21:36:31;9.70;99.90
12421;DHT22;6275;43.688;1.408;2023-01-08T21:38:59;9.70;99.90
12421;DHT22;6275;43.688;1.408;2023-01-08T21:41:28;9.70;99.90
12421;DHT22;6275;43.688;1.408;2023-01-08T21:44:20;9.70;99.90
12421;DHT22;6275;43.688;1.408;2023-01-08T21:47:12;9.70;99.90
12421;DHT22;6275;43.688;1.408;2023-01-08T21:49:40;9.70;99.90
12421;DHT22;6275;43.688;1.408;2023-01-08T21:52:07;9.60;99.90
12421;DHT22;6275;43.688;1.408;2023-01-08T21:54:53;9.60;99.90
12421;DHT22;6275;43.688;1.408;2023-01-08T21:57:20;9.60;99.90
12421;DHT22;6275;43.688;1.408;2023-01-08T21:59:48;9.50;99.90
12421;DHT22;6275;43.688;1.408;2023-01-08T22:02:17;9.60;99.90
12421;DHT22;6275;43.688;1.408;2023-01-08T22:04:45;9.60;99.90
12421;DHT22;6275;43.688;1.408;2023-01-08T22:07:12;9.50;99.90
12421;DHT22;6275;43.688;1.408;2023-01-08T22:09:39;9.50;99.90
12421;DHT22;6275;43.688;1.408;2023-01-08T22:12:07;9.50;99.90
12421;DHT22;6275;43.688;1.408;2023-01-08T22:14:34;9.50;99.90
12421;DHT22;6275;43.688;1.408;2023-01-08T22:17:01;9.50;99.90
12421;DHT22;6275;43.688;1.408;2023-01-08T22:19:29;9.50;99.90
12421;DHT22;6275;43.688;1.408;2023-01-08T22:21:56;9.50;99.90
12421;DHT22;6275;43.688;1.408;2023-01-08T22:24:23;9.30;99.90
12421;DHT22;6275;43.688;1.408;2023-01-08T22:26:50;9.30;99.90
12421;DHT22;6275;43.688;1.408;2023-01-08T22:29:17;9.30;99.90
12421;DHT22;6275;43.688;1.408;2023-01-08T22:31:44;9.30;99.90
12421;DHT22;6275;43.688;1.408;2023-01-08T22:34:11;9.40;99.90
12421;DHT22;6275;43.688;1.408;2023-01-08T22:36:48;9.40;99.90
12421;DHT22;6275;43.688;1.408;2023-01-08T22:39:15;9.40;99.90
12421;DHT22;6275;43.688;1.408;2023-01-08T22:41:42;9.40;99.90
12421;DHT22;6275;43.688;1.408;2023-01-08T22:44:11;9.40;99.90
12421;DHT22;6275;43.688;1.408;2023-01-08T22:46:38;9.40;99.90
12421;DHT22;6275;43.688;1.408;2023-01-08T22:49:05;9.50;99.90
12421;DHT22;6275;43.688;1.408;2023-01-08T22:51:32;9.50;99.90
12421;DHT22;6275;43.688;1.408;2023-01-08T22:54:00;9.50;99.90
12421;DHT22;6275;43.688;1.408;2023-01-08T22:56:27;9.40;99.90
12421;DHT22;6275;43.688;1.408;2023-01-08T22:58:54;9.20;99.90
12421;DHT22;6275;43.688;1.408;2023-01-08T23:01:25;9.10;99.90
12421;DHT22;6275;43.688;1.408;2023-01-08T23:03:58;9.10;99.90
12421;DHT22;6275;43.688;1.408;2023-01-08T23:06:28;8.90;99.90